sensor_id;sensor_type;location;lat;lon;timestamp;P1;durP1;ratioP1;P2;durP2;ratioP2
33152;SDS011;19509;43.862;26.176;2024-03-08T00:01:18;2.13;;;2.13;;
33152;SDS011;19509;43.862;26.176;2024-03-08T00:03:44;2.17;;;2.17;;
33152;SDS011;19509;43.862;26.176;2024-03-08T00:06:09;2.13;;;2.13;;
33152;SDS011;19509;43.862;26.176;2024-03-08T00:08:35;2.20;;;2.20;;
33152;SDS011;19509;43.862;26.176;2024-03-08T00:11:00;2.40;;;2.40;;
33152;SDS011;19509;43.862;26.176;2024-03-08T00:13:25;2.30;;;2.30;;
33152;SDS011;19509;43.862;26.176;2024-03-08T00:15:51;1.97;;;1.97;;
33152;SDS011;19509;43.862;26.176;2024-03-08T00:18:16;2.20;;;2.20;;
33152;SDS011;19509;43.862;26.176;2024-03-08T00:20:42;2.40;;;2.40;;
33152;SDS011;19509;43.862;26.176;2024-03-08T00:23:07;2.33;;;2.23;;
33152;SDS011;19509;43.862;26.176;2024-03-08T00:25:32;2.17;;;2.17;;
33152;SDS011;19509;43.862;26.176;2024-03-08T00:27:59;2.50;;;2.50;;
33152;SDS011;19509;43.862;26.176;2024-03-08T00:30:24;2.10;;;2.10;;
33152;SDS011;19509;43.862;26.176;2024-03-08T00:32:50;2.27;;;2.27;;
33152;SDS011;19509;43.862;26.176;2024-03-08T00:35:15;2.30;;;2.30;;
33152;SDS011;19509;43.862;26.176;2024-03-08T00:37:41;2.60;;;2.60;;
33152;SDS011;19509;43.862;26.176;2024-03-08T00:40:12;2.40;;;2.37;;
33152;SDS011;19509;43.862;26.176;2024-03-08T00:42:37;2.30;;;2.20;;
33152;SDS011;19509;43.862;26.176;2024-03-08T00:45:04;2.40;;;2.40;;
33152;SDS011;19509;43.862;26.176;2024-03-08T00:47:29;2.33;;;2.33;;
33152;SDS011;19509;43.862;26.176;2024-03-08T00:49:54;2.00;;;2.00;;
33152;SDS011;19509;43.862;26.176;2024-03-08T00:52:21;2.30;;;2.30;;
33152;SDS011;19509;43.862;26.176;2024-03-08T00:54:50;2.10;;;2.10;;
33152;SDS011;19509;43.862;26.176;2024-03-08T00:57:15;2.20;;;2.20;;
33152;SDS011;19509;43.862;26.176;2024-03-08T00:59:40;2.40;;;2.30;;
33152;SDS011;19509;43.862;26.176;2024-03-08T01:02:06;2.70;;;2.70;;
33152;SDS011;19509;43.862;26.176;2024-03-08T01:04:31;2.13;;;2.13;;
33152;SDS011;19509;43.862;26.176;2024-03-08T01:06:58;2.10;;;2.10;;
33152;SDS011;19509;43.862;26.176;2024-03-08T01:09:24;2.30;;;2.30;;
33152;SDS011;19509;43.862;26.176;2024-03-08T01:11:49;2.43;;;2.43;;
33152;SDS011;19509;43.862;26.176;2024-03-08T01:14:15;2.37;;;2.37;;
33152;SDS011;19509;43.862;26.176;2024-03-08T01:16:40;2.50;;;2.50;;
33152;SDS011;19509;43.862;26.176;2024-03-08T01:19:06;2.63;;;2.53;;
33152;SDS011;19509;43.862;26.176;2024-03-08T01:21:31;2.63;;;2.57;;
33152;SDS011;19509;43.862;26.176;2024-03-08T01:23:57;2.50;;;2.50;;
33152;SDS011;19509;43.862;26.176;2024-03-08T01:26:22;2.50;;;2.40;;
33152;SDS011;19509;43.862;26.176;2024-03-08T01:28:48;2.40;;;2.40;;
33152;SDS011;19509;43.862;26.176;2024-03-08T01:31:13;2.70;;;2.60;;
33152;SDS011;19509;43.862;26.176;2024-03-08T01:33:39;2.40;;;2.40;;
33152;SDS011;19509;43.862;26.176;2024-03-08T01:36:05;2.20;;;2.20;;
33152;SDS011;19509;43.862;26.176;2024-03-08T01:38:30;2.57;;;2.47;;
33152;SDS011;19509;43.862;26.176;2024-03-08T01:40:56;2.30;;;2.30;;
33152;SDS011;19509;43.862;26.176;2024-03-08T01:43:28;2.77;;;2.67;;
33152;SDS011;19509;43.862;26.176;2024-03-08T01:45:54;2.50;;;2.40;;
33152;SDS011;19509;43.862;26.176;2024-03-08T01:48:19;2.37;;;2.37;;
33152;SDS011;19509;43.862;26.176;2024-03-08T01:50:48;2.17;;;2.17;;
33152;SDS011;19509;43.862;26.176;2024-03-08T01:53:14;2.57;;;2.47;;
33152;SDS011;19509;43.862;26.176;2024-03-08T01:55:40;2.30;;;2.30;;
33152;SDS011;19509;43.862;26.176;2024-03-08T01:58:06;2.83;;;2.60;;
33152;SDS011;19509;43.862;26.176;2024-03-08T02:00:32;2.20;;;2.20;;
33152;SDS011;19509;43.862;26.176;2024-03-08T02:02:58;2.40;;;2.40;;
33152;SDS011;19509;43.862;26.176;2024-03-08T02:05:23;2.20;;;2.20;;
33152;SDS011;19509;43.862;26.176;2024-03-08T02:07:49;2.40;;;2.40;;
33152;SDS011;19509;43.862;26.176;2024-03-08T02:10:14;2.70;;;2.60;;
33152;SDS011;19509;43.862;26.176;2024-03-08T02:12:40;2.30;;;2.30;;
33152;SDS011;19509;43.862;26.176;2024-03-08T02:15:05;2.57;;;2.57;;
33152;SDS011;19509;43.862;26.176;2024-03-08T02:17:33;2.40;;;2.40;;
33152;SDS011;19509;43.862;26.176;2024-03-08T02:20:00;2.20;;;2.20;;
33152;SDS011;19509;43.862;26.176;2024-03-08T02:22:30;2.87;;;2.77;;
33152;SDS011;19509;43.862;26.176;2024-03-08T02:24:59;2.30;;;2.20;;
33152;SDS011;19509;43.862;26.176;2024-03-08T02:27:26;2.50;;;2.50;;
33152;SDS011;19509;43.862;26.176;2024-03-08T02:29:54;2.50;;;2.50;;
33152;SDS011;19509;43.862;26.176;2024-03-08T02:32:21;2.60;;;2.50;;
33152;SDS011;19509;43.862;26.176;2024-03-08T02:34:46;2.50;;;2.50;;
33152;SDS011;19509;43.862;26.176;2024-03-08T02:37:11;2.83;;;2.73;;
33152;SDS011;19509;43.862;26.176;2024-03-08T02:39:37;2.83;;;2.63;;
33152;SDS011;19509;43.862;26.176;2024-03-08T02:42:03;2.37;;;2.37;;
33152;SDS011;19509;43.862;26.176;2024-03-08T02:44:28;2.60;;;2.60;;
33152;SDS011;19509;43.862;26.176;2024-03-08T02:46:53;2.43;;;2.43;;
33152;SDS011;19509;43.862;26.176;2024-03-08T02:49:20;2.63;;;2.63;;
33152;SDS011;19509;43.862;26.176;2024-03-08T02:51:45;2.40;;;2.40;;
33152;SDS011;19509;43.862;26.176;2024-03-08T02:54:11;2.77;;;2.70;;
33152;SDS011;19509;43.862;26.176;2024-03-08T02:56:36;2.30;;;2.30;;
33152;SDS011;19509;43.862;26.176;2024-03-08T02:59:02;2.47;;;2.47;;
33152;SDS011;19509;43.862;26.176;2024-03-08T03:01:28;2.57;;;2.57;;
33152;SDS011;19509;43.862;26.176;2024-03-08T03:03:53;2.77;;;2.77;;
33152;SDS011;19509;43.862;26.176;2024-03-08T03:06:18;2.43;;;2.43;;
33152;SDS011;19509;43.862;26.176;2024-03-08T03:08:46;2.93;;;2.83;;
33152;SDS011;19509;43.862;26.176;2024-03-08T03:11:11;3.07;;;2.97;;
33152;SDS011;19509;43.862;26.176;2024-03-08T03:13:38;2.33;;;2.33;;
33152;SDS011;19509;43.862;26.176;2024-03-08T03:16:03;2.43;;;2.43;;
33152;SDS011;19509;43.862;26.176;2024-03-08T03:18:29;2.90;;;2.90;;
33152;SDS011;19509;43.862;26.176;2024-03-08T03:20:54;2.60;;;2.60;;
33152;SDS011;19509;43.862;26.176;2024-03-08T03:23:20;2.83;;;2.73;;
33152;SDS011;19509;43.862;26.176;2024-03-08T03:25:45;2.43;;;2.43;;
33152;SDS011;19509;43.862;26.176;2024-03-08T03:28:11;2.60;;;2.60;;
33152;SDS011;19509;43.862;26.176;2024-03-08T03:30:39;2.90;;;2.80;;
33152;SDS011;19509;43.862;26.176;2024-03-08T03:33:05;2.60;;;2.60;;
33152;SDS011;19509;43.862;26.176;2024-03-08T03:35:33;2.20;;;2.20;;
33152;SDS011;19509;43.862;26.176;2024-03-08T03:37:59;2.63;;;2.63;;
33152;SDS011;19509;43.862;26.176;2024-03-08T03:40:32;2.70;;;2.70;;
33152;SDS011;19509;43.862;26.176;2024-03-08T03:42:57;2.30;;;2.30;;
33152;SDS011;19509;43.862;26.176;2024-03-08T03:45:23;2.63;;;2.63;;
33152;SDS011;19509;43.862;26.176;2024-03-08T03:47:48;2.60;;;2.60;;
33152;SDS011;19509;43.862;26.176;2024-03-08T03:50:14;2.60;;;2.60;;
33152;SDS011;19509;43.862;26.176;2024-03-08T03:52:39;2.70;;;2.70;;
33152;SDS011;19509;43.862;26.176;2024-03-08T03:55:04;2.80;;;2.70;;
33152;SDS011;19509;43.862;26.176;2024-03-08T03:57:30;2.80;;;2.70;;
33152;SDS011;19509;43.862;26.176;2024-03-08T03:59:56;2.77;;;2.67;;
33152;SDS011;19509;43.862;26.176;2024-03-08T04:02:23;2.60;;;2.60;;
33152;SDS011;19509;43.862;26.176;2024-03-08T04:04:49;2.50;;;2.50;;
33152;SDS011;19509;43.862;26.176;2024-03-08T04:07:15;2.20;;;2.20;;
33152;SDS011;19509;43.862;26.176;2024-03-08T04:09:40;2.87;;;2.77;;
33152;SDS011;19509;43.862;26.176;2024-03-08T04:12:06;3.00;;;2.90;;
33152;SDS011;19509;43.862;26.176;2024-03-08T04:14:32;2.50;;;2.50;;
33152;SDS011;19509;43.862;26.176;2024-03-08T04:16:57;2.70;;;2.70;;
33152;SDS011;19509;43.862;26.176;2024-03-08T04:19:23;3.10;;;3.00;;
33152;SDS011;19509;43.862;26.176;2024-03-08T04:21:49;3.50;;;3.40;;
33152;SDS011;19509;43.862;26.176;2024-03-08T04:24:15;3.00;;;2.90;;
33152;SDS011;19509;43.862;26.176;2024-03-08T04:26:42;3.07;;;2.97;;
33152;SDS011;19509;43.862;26.176;2024-03-08T04:29:07;3.03;;;2.97;;
33152;SDS011;19509;43.862;26.176;2024-03-08T04:31:33;2.37;;;2.37;;
33152;SDS011;19509;43.862;26.176;2024-03-08T04:33:58;2.50;;;2.40;;
33152;SDS011;19509;43.862;26.176;2024-03-08T04:36:23;2.57;;;2.57;;
33152;SDS011;19509;43.862;26.176;2024-03-08T04:38:50;2.93;;;2.70;;
33152;SDS011;19509;43.862;26.176;2024-03-08T04:41:16;2.50;;;2.50;;
33152;SDS011;19509;43.862;26.176;2024-03-08T04:43:41;2.73;;;2.73;;
33152;SDS011;19509;43.862;26.176;2024-03-08T04:46:07;2.60;;;2.60;;
33152;SDS011;19509;43.862;26.176;2024-03-08T04:48:33;2.60;;;2.50;;
33152;SDS011;19509;43.862;26.176;2024-03-08T04:51:02;3.03;;;2.93;;
33152;SDS011;19509;43.862;26.176;2024-03-08T04:53:27;2.97;;;2.87;;
33152;SDS011;19509;43.862;26.176;2024-03-08T04:55:52;2.60;;;2.60;;
33152;SDS011;19509;43.862;26.176;2024-03-08T04:58:18;2.60;;;2.50;;
33152;SDS011;19509;43.862;26.176;2024-03-08T05:00:43;2.60;;;2.60;;
33152;SDS011;19509;43.862;26.176;2024-03-08T05:03:09;2.40;;;2.40;;
33152;SDS011;19509;43.862;26.176;2024-03-08T05:05:34;2.87;;;2.87;;
33152;SDS011;19509;43.862;26.176;2024-03-08T05:07:59;2.80;;;2.80;;
33152;SDS011;19509;43.862;26.176;2024-03-08T05:10:26;2.60;;;2.60;;
33152;SDS011;19509;43.862;26.176;2024-03-08T05:12:52;2.60;;;2.60;;
33152;SDS011;19509;43.862;26.176;2024-03-08T05:15:17;3.00;;;2.90;;
33152;SDS011;19509;43.862;26.176;2024-03-08T05:17:43;2.97;;;2.77;;
33152;SDS011;19509;43.862;26.176;2024-03-08T05:20:08;2.70;;;2.70;;
33152;SDS011;19509;43.862;26.176;2024-03-08T05:22:37;2.40;;;2.40;;
33152;SDS011;19509;43.862;26.176;2024-03-08T05:25:02;2.43;;;2.43;;
33152;SDS011;19509;43.862;26.176;2024-03-08T05:27:28;2.50;;;2.50;;
33152;SDS011;19509;43.862;26.176;2024-03-08T05:29:54;2.40;;;2.40;;
33152;SDS011;19509;43.862;26.176;2024-03-08T05:32:19;2.40;;;2.40;;
33152;SDS011;19509;43.862;26.176;2024-03-08T05:34:45;2.17;;;2.17;;
33152;SDS011;19509;43.862;26.176;2024-03-08T05:37:10;2.60;;;2.60;;
33152;SDS011;19509;43.862;26.176;2024-03-08T05:39:37;2.40;;;2.40;;
33152;SDS011;19509;43.862;26.176;2024-03-08T05:42:03;2.70;;;2.50;;
33152;SDS011;19509;43.862;26.176;2024-03-08T05:44:28;2.20;;;2.20;;
33152;SDS011;19509;43.862;26.176;2024-03-08T05:46:54;2.17;;;2.17;;
33152;SDS011;19509;43.862;26.176;2024-03-08T05:49:21;2.40;;;2.30;;
33152;SDS011;19509;43.862;26.176;2024-03-08T05:51:46;2.30;;;2.30;;
33152;SDS011;19509;43.862;26.176;2024-03-08T05:54:12;2.63;;;2.63;;
33152;SDS011;19509;43.862;26.176;2024-03-08T05:56:38;2.70;;;2.70;;
33152;SDS011;19509;43.862;26.176;2024-03-08T05:59:05;2.27;;;2.27;;
33152;SDS011;19509;43.862;26.176;2024-03-08T06:01:31;2.10;;;2.10;;
33152;SDS011;19509;43.862;26.176;2024-03-08T06:03:56;2.40;;;2.40;;
33152;SDS011;19509;43.862;26.176;2024-03-08T06:06:25;2.57;;;2.47;;
33152;SDS011;19509;43.862;26.176;2024-03-08T06:08:51;2.70;;;2.60;;
33152;SDS011;19509;43.862;26.176;2024-03-08T06:11:16;2.30;;;2.30;;
33152;SDS011;19509;43.862;26.176;2024-03-08T06:13:43;2.67;;;2.57;;
33152;SDS011;19509;43.862;26.176;2024-03-08T06:16:08;2.70;;;2.50;;
33152;SDS011;19509;43.862;26.176;2024-03-08T06:18:34;2.70;;;2.60;;
33152;SDS011;19509;43.862;26.176;2024-03-08T06:21:01;2.53;;;2.50;;
33152;SDS011;19509;43.862;26.176;2024-03-08T06:23:27;2.63;;;2.53;;
33152;SDS011;19509;43.862;26.176;2024-03-08T06:25:53;2.30;;;2.30;;
33152;SDS011;19509;43.862;26.176;2024-03-08T06:28:18;2.30;;;2.30;;
33152;SDS011;19509;43.862;26.176;2024-03-08T06:30:43;2.13;;;2.13;;
33152;SDS011;19509;43.862;26.176;2024-03-08T06:33:09;2.33;;;2.33;;
33152;SDS011;19509;43.862;26.176;2024-03-08T06:35:35;2.30;;;2.30;;
33152;SDS011;19509;43.862;26.176;2024-03-08T06:38:03;2.60;;;2.50;;
33152;SDS011;19509;43.862;26.176;2024-03-08T06:40:28;1.93;;;1.93;;
33152;SDS011;19509;43.862;26.176;2024-03-08T06:42:54;2.30;;;2.30;;
33152;SDS011;19509;43.862;26.176;2024-03-08T06:45:19;2.40;;;2.40;;
33152;SDS011;19509;43.862;26.176;2024-03-08T06:47:46;2.40;;;2.40;;
33152;SDS011;19509;43.862;26.176;2024-03-08T06:50:11;2.30;;;2.30;;
33152;SDS011;19509;43.862;26.176;2024-03-08T06:52:37;2.23;;;2.10;;
33152;SDS011;19509;43.862;26.176;2024-03-08T06:55:03;2.17;;;2.17;;
33152;SDS011;19509;43.862;26.176;2024-03-08T06:57:30;2.13;;;2.13;;
33152;SDS011;19509;43.862;26.176;2024-03-08T06:59:55;2.50;;;2.50;;
33152;SDS011;19509;43.862;26.176;2024-03-08T07:02:22;2.20;;;2.20;;
33152;SDS011;19509;43.862;26.176;2024-03-08T07:04:49;2.17;;;2.17;;
33152;SDS011;19509;43.862;26.176;2024-03-08T07:07:15;2.20;;;2.20;;
33152;SDS011;19509;43.862;26.176;2024-03-08T07:09:40;2.43;;;2.43;;
33152;SDS011;19509;43.862;26.176;2024-03-08T07:12:07;2.70;;;2.60;;
33152;SDS011;19509;43.862;26.176;2024-03-08T07:14:33;2.20;;;2.20;;
33152;SDS011;19509;43.862;26.176;2024-03-08T07:16:58;2.10;;;2.10;;
33152;SDS011;19509;43.862;26.176;2024-03-08T07:19:24;1.97;;;1.97;;
33152;SDS011;19509;43.862;26.176;2024-03-08T07:21:49;2.23;;;2.13;;
33152;SDS011;19509;43.862;26.176;2024-03-08T07:24:15;2.00;;;2.00;;
33152;SDS011;19509;43.862;26.176;2024-03-08T07:26:53;2.20;;;2.20;;
33152;SDS011;19509;43.862;26.176;2024-03-08T07:29:19;2.30;;;2.30;;
33152;SDS011;19509;43.862;26.176;2024-03-08T07:31:44;2.00;;;2.00;;
33152;SDS011;19509;43.862;26.176;2024-03-08T07:34:16;2.40;;;2.40;;
33152;SDS011;19509;43.862;26.176;2024-03-08T07:36:41;2.20;;;2.20;;
33152;SDS011;19509;43.862;26.176;2024-03-08T07:39:07;1.90;;;1.90;;
33152;SDS011;19509;43.862;26.176;2024-03-08T07:41:36;2.17;;;2.17;;
33152;SDS011;19509;43.862;26.176;2024-03-08T07:44:02;2.27;;;2.20;;
33152;SDS011;19509;43.862;26.176;2024-03-08T07:46:28;2.43;;;2.33;;
33152;SDS011;19509;43.862;26.176;2024-03-08T07:48:54;2.40;;;2.30;;
33152;SDS011;19509;43.862;26.176;2024-03-08T07:51:19;2.50;;;2.50;;
33152;SDS011;19509;43.862;26.176;2024-03-08T07:53:45;2.30;;;2.30;;
33152;SDS011;19509;43.862;26.176;2024-03-08T07:56:11;2.50;;;2.40;;
33152;SDS011;19509;43.862;26.176;2024-03-08T07:58:38;1.90;;;1.90;;
33152;SDS011;19509;43.862;26.176;2024-03-08T08:01:05;2.20;;;2.20;;
33152;SDS011;19509;43.862;26.176;2024-03-08T08:03:31;2.87;;;2.77;;
33152;SDS011;19509;43.862;26.176;2024-03-08T08:05:56;2.13;;;2.13;;
33152;SDS011;19509;43.862;26.176;2024-03-08T08:08:22;2.03;;;2.03;;
33152;SDS011;19509;43.862;26.176;2024-03-08T08:10:47;2.33;;;2.20;;
33152;SDS011;19509;43.862;26.176;2024-03-08T08:13:12;2.20;;;2.20;;
33152;SDS011;19509;43.862;26.176;2024-03-08T08:15:38;2.30;;;2.30;;
33152;SDS011;19509;43.862;26.176;2024-03-08T08:18:03;2.13;;;2.13;;
33152;SDS011;19509;43.862;26.176;2024-03-08T08:20:30;2.10;;;2.10;;
33152;SDS011;19509;43.862;26.176;2024-03-08T08:22:56;2.33;;;2.33;;
33152;SDS011;19509;43.862;26.176;2024-03-08T08:25:21;2.03;;;2.03;;
33152;SDS011;19509;43.862;26.176;2024-03-08T08:27:49;2.07;;;2.07;;
33152;SDS011;19509;43.862;26.176;2024-03-08T08:30:14;2.00;;;2.00;;
33152;SDS011;19509;43.862;26.176;2024-03-08T08:32:40;2.10;;;2.10;;
33152;SDS011;19509;43.862;26.176;2024-03-08T08:35:07;2.10;;;2.10;;
33152;SDS011;19509;43.862;26.176;2024-03-08T08:37:34;2.30;;;2.30;;
33152;SDS011;19509;43.862;26.176;2024-03-08T08:40:03;2.40;;;2.20;;
33152;SDS011;19509;43.862;26.176;2024-03-08T08:42:35;2.10;;;2.10;;
33152;SDS011;19509;43.862;26.176;2024-03-08T08:45:00;2.10;;;2.10;;
33152;SDS011;19509;43.862;26.176;2024-03-08T08:47:26;2.10;;;2.10;;
33152;SDS011;19509;43.862;26.176;2024-03-08T08:49:52;1.97;;;1.97;;
33152;SDS011;19509;43.862;26.176;2024-03-08T08:52:17;1.93;;;1.93;;
33152;SDS011;19509;43.862;26.176;2024-03-08T08:54:43;2.20;;;2.20;;
33152;SDS011;19509;43.862;26.176;2024-03-08T08:57:09;2.13;;;2.13;;
33152;SDS011;19509;43.862;26.176;2024-03-08T08:59:35;2.33;;;2.23;;
33152;SDS011;19509;43.862;26.176;2024-03-08T09:02:05;1.80;;;1.80;;
33152;SDS011;19509;43.862;26.176;2024-03-08T09:04:30;1.90;;;1.90;;
33152;SDS011;19509;43.862;26.176;2024-03-08T09:06:58;2.07;;;2.07;;
33152;SDS011;19509;43.862;26.176;2024-03-08T09:09:24;2.00;;;2.00;;
33152;SDS011;19509;43.862;26.176;2024-03-08T09:11:50;1.97;;;1.97;;
33152;SDS011;19509;43.862;26.176;2024-03-08T09:14:16;1.87;;;1.87;;
33152;SDS011;19509;43.862;26.176;2024-03-08T09:16:41;2.07;;;2.07;;
33152;SDS011;19509;43.862;26.176;2024-03-08T09:19:06;2.50;;;2.40;;
33152;SDS011;19509;43.862;26.176;2024-03-08T09:21:32;2.20;;;2.20;;
33152;SDS011;19509;43.862;26.176;2024-03-08T09:23:59;2.20;;;2.20;;
33152;SDS011;19509;43.862;26.176;2024-03-08T09:26:25;2.00;;;2.00;;
33152;SDS011;19509;43.862;26.176;2024-03-08T09:28:50;2.30;;;2.30;;
33152;SDS011;19509;43.862;26.176;2024-03-08T09:31:16;1.90;;;1.90;;
33152;SDS011;19509;43.862;26.176;2024-03-08T09:33:42;2.00;;;2.00;;
33152;SDS011;19509;43.862;26.176;2024-03-08T09:36:07;1.83;;;1.83;;
33152;SDS011;19509;43.862;26.176;2024-03-08T09:38:33;1.97;;;1.97;;
33152;SDS011;19509;43.862;26.176;2024-03-08T09:40:59;1.93;;;1.93;;
33152;SDS011;19509;43.862;26.176;2024-03-08T09:43:26;2.10;;;2.10;;
33152;SDS011;19509;43.862;26.176;2024-03-08T09:45:52;2.10;;;2.10;;
33152;SDS011;19509;43.862;26.176;2024-03-08T09:48:17;1.90;;;1.90;;
33152;SDS011;19509;43.862;26.176;2024-03-08T09:50:44;2.10;;;2.10;;
33152;SDS011;19509;43.862;26.176;2024-03-08T09:53:10;2.23;;;2.23;;
33152;SDS011;19509;43.862;26.176;2024-03-08T09:55:37;1.70;;;1.70;;
33152;SDS011;19509;43.862;26.176;2024-03-08T09:58:02;1.93;;;1.93;;
33152;SDS011;19509;43.862;26.176;2024-03-08T10:00:45;1.90;;;1.90;;
33152;SDS011;19509;43.862;26.176;2024-03-08T10:03:10;1.93;;;1.93;;
33152;SDS011;19509;43.862;26.176;2024-03-08T10:05:39;1.90;;;1.90;;
33152;SDS011;19509;43.862;26.176;2024-03-08T10:08:05;2.13;;;2.13;;
33152;SDS011;19509;43.862;26.176;2024-03-08T10:10:33;1.90;;;1.90;;
33152;SDS011;19509;43.862;26.176;2024-03-08T10:12:58;2.00;;;1.90;;
33152;SDS011;19509;43.862;26.176;2024-03-08T10:15:26;1.90;;;1.90;;
33152;SDS011;19509;43.862;26.176;2024-03-08T10:17:53;2.10;;;2.10;;
33152;SDS011;19509;43.862;26.176;2024-03-08T10:20:18;2.10;;;2.10;;
33152;SDS011;19509;43.862;26.176;2024-03-08T10:22:44;1.97;;;1.97;;
33152;SDS011;19509;43.862;26.176;2024-03-08T10:25:10;1.80;;;1.80;;
33152;SDS011;19509;43.862;26.176;2024-03-08T10:27:39;2.00;;;2.00;;
33152;SDS011;19509;43.862;26.176;2024-03-08T10:30:12;1.90;;;1.90;;
33152;SDS011;19509;43.862;26.176;2024-03-08T10:32:39;2.00;;;1.90;;
33152;SDS011;19509;43.862;26.176;2024-03-08T10:35:06;1.90;;;1.90;;
33152;SDS011;19509;43.862;26.176;2024-03-08T10:37:33;2.00;;;2.00;;
33152;SDS011;19509;43.862;26.176;2024-03-08T10:40:04;2.10;;;2.10;;
33152;SDS011;19509;43.862;26.176;2024-03-08T10:42:38;2.03;;;2.03;;
33152;SDS011;19509;43.862;26.176;2024-03-08T10:45:05;1.77;;;1.77;;
33152;SDS011;19509;43.862;26.176;2024-03-08T10:47:32;1.90;;;1.90;;
33152;SDS011;19509;43.862;26.176;2024-03-08T10:52:30;1.90;;;1.90;;
33152;SDS011;19509;43.862;26.176;2024-03-08T10:54:56;1.93;;;1.93;;
33152;SDS011;19509;43.862;26.176;2024-03-08T10:57:22;2.00;;;2.00;;
33152;SDS011;19509;43.862;26.176;2024-03-08T10:59:49;2.00;;;2.00;;
33152;SDS011;19509;43.862;26.176;2024-03-08T11:02:15;2.00;;;2.00;;
33152;SDS011;19509;43.862;26.176;2024-03-08T11:04:45;2.10;;;2.10;;
33152;SDS011;19509;43.862;26.176;2024-03-08T11:07:11;1.70;;;1.70;;
33152;SDS011;19509;43.862;26.176;2024-03-08T11:09:42;1.80;;;1.80;;
33152;SDS011;19509;43.862;26.176;2024-03-08T11:12:20;1.90;;;1.90;;
33152;SDS011;19509;43.862;26.176;2024-03-08T11:25:38;2.20;;;2.20;;
33152;SDS011;19509;43.862;26.176;2024-03-08T11:28:27;1.80;;;1.80;;
33152;SDS011;19509;43.862;26.176;2024-03-08T11:33:27;1.80;;;1.80;;
33152;SDS011;19509;43.862;26.176;2024-03-08T11:36:01;2.00;;;2.00;;
33152;SDS011;19509;43.862;26.176;2024-03-08T11:38:28;2.00;;;2.00;;
33152;SDS011;19509;43.862;26.176;2024-03-08T11:40:56;1.80;;;1.80;;
33152;SDS011;19509;43.862;26.176;2024-03-08T11:43:21;1.87;;;1.87;;
33152;SDS011;19509;43.862;26.176;2024-03-08T11:45:47;1.70;;;1.70;;
33152;SDS011;19509;43.862;26.176;2024-03-08T11:48:13;1.80;;;1.80;;
33152;SDS011;19509;43.862;26.176;2024-03-08T11:50:39;1.90;;;1.90;;
33152;SDS011;19509;43.862;26.176;2024-03-08T11:53:05;1.87;;;1.87;;
33152;SDS011;19509;43.862;26.176;2024-03-08T11:55:31;1.73;;;1.73;;
33152;SDS011;19509;43.862;26.176;2024-03-08T11:58:03;1.93;;;1.93;;
33152;SDS011;19509;43.862;26.176;2024-03-08T12:00:29;1.80;;;1.80;;
33152;SDS011;19509;43.862;26.176;2024-03-08T12:03:07;1.60;;;1.60;;
33152;SDS011;19509;43.862;26.176;2024-03-08T12:05:33;1.97;;;1.97;;
33152;SDS011;19509;43.862;26.176;2024-03-08T12:07:58;1.80;;;1.80;;
33152;SDS011;19509;43.862;26.176;2024-03-08T12:10:24;1.73;;;1.73;;
33152;SDS011;19509;43.862;26.176;2024-03-08T12:12:53;1.87;;;1.80;;
33152;SDS011;19509;43.862;26.176;2024-03-08T12:15:19;1.83;;;1.83;;
33152;SDS011;19509;43.862;26.176;2024-03-08T12:17:49;1.90;;;1.90;;
33152;SDS011;19509;43.862;26.176;2024-03-08T12:20:18;1.83;;;1.83;;
33152;SDS011;19509;43.862;26.176;2024-03-08T12:22:46;1.90;;;1.90;;
33152;SDS011;19509;43.862;26.176;2024-03-08T12:25:12;1.67;;;1.67;;
33152;SDS011;19509;43.862;26.176;2024-03-08T12:27:39;1.70;;;1.70;;
33152;SDS011;19509;43.862;26.176;2024-03-08T12:30:18;1.60;;;1.60;;
33152;SDS011;19509;43.862;26.176;2024-03-08T12:32:50;1.70;;;1.70;;
33152;SDS011;19509;43.862;26.176;2024-03-08T12:35:18;1.73;;;1.73;;
33152;SDS011;19509;43.862;26.176;2024-03-08T12:37:43;1.50;;;1.50;;
33152;SDS011;19509;43.862;26.176;2024-03-08T12:40:09;1.77;;;1.77;;
33152;SDS011;19509;43.862;26.176;2024-03-08T12:42:34;1.70;;;1.70;;
33152;SDS011;19509;43.862;26.176;2024-03-08T12:45:00;1.70;;;1.70;;
33152;SDS011;19509;43.862;26.176;2024-03-08T12:47:26;1.80;;;1.80;;
33152;SDS011;19509;43.862;26.176;2024-03-08T12:49:54;1.70;;;1.70;;
33152;SDS011;19509;43.862;26.176;2024-03-08T12:52:20;1.87;;;1.80;;
33152;SDS011;19509;43.862;26.176;2024-03-08T12:54:45;1.40;;;1.40;;
33152;SDS011;19509;43.862;26.176;2024-03-08T12:57:12;1.67;;;1.57;;
33152;SDS011;19509;43.862;26.176;2024-03-08T12:59:38;1.60;;;1.60;;
33152;SDS011;19509;43.862;26.176;2024-03-08T13:02:03;1.70;;;1.70;;
33152;SDS011;19509;43.862;26.176;2024-03-08T13:04:30;1.90;;;1.90;;
33152;SDS011;19509;43.862;26.176;2024-03-08T13:06:56;1.70;;;1.70;;
33152;SDS011;19509;43.862;26.176;2024-03-08T13:09:22;1.60;;;1.60;;
33152;SDS011;19509;43.862;26.176;2024-03-08T13:11:47;1.70;;;1.70;;
33152;SDS011;19509;43.862;26.176;2024-03-08T13:14:12;1.60;;;1.60;;
33152;SDS011;19509;43.862;26.176;2024-03-08T13:16:38;1.60;;;1.60;;
33152;SDS011;19509;43.862;26.176;2024-03-08T13:19:03;1.70;;;1.70;;
33152;SDS011;19509;43.862;26.176;2024-03-08T13:21:29;1.57;;;1.57;;
33152;SDS011;19509;43.862;26.176;2024-03-08T13:23:56;1.50;;;1.50;;
33152;SDS011;19509;43.862;26.176;2024-03-08T13:26:24;1.67;;;1.67;;
33152;SDS011;19509;43.862;26.176;2024-03-08T13:28:51;1.57;;;1.57;;
33152;SDS011;19509;43.862;26.176;2024-03-08T13:31:21;1.67;;;1.67;;
33152;SDS011;19509;43.862;26.176;2024-03-08T13:33:47;1.70;;;1.70;;
33152;SDS011;19509;43.862;26.176;2024-03-08T13:36:12;1.70;;;1.70;;
33152;SDS011;19509;43.862;26.176;2024-03-08T13:38:41;1.40;;;1.40;;
33152;SDS011;19509;43.862;26.176;2024-03-08T13:41:08;1.57;;;1.57;;
33152;SDS011;19509;43.862;26.176;2024-03-08T13:43:33;1.50;;;1.50;;
33152;SDS011;19509;43.862;26.176;2024-03-08T13:46:01;1.70;;;1.70;;
33152;SDS011;19509;43.862;26.176;2024-03-08T13:48:26;1.73;;;1.73;;
33152;SDS011;19509;43.862;26.176;2024-03-08T13:50:52;1.60;;;1.60;;
33152;SDS011;19509;43.862;26.176;2024-03-08T13:53:17;1.77;;;1.77;;
33152;SDS011;19509;43.862;26.176;2024-03-08T13:55:43;1.60;;;1.60;;
33152;SDS011;19509;43.862;26.176;2024-03-08T13:58:09;1.80;;;1.80;;
33152;SDS011;19509;43.862;26.176;2024-03-08T14:00:37;1.60;;;1.60;;
33152;SDS011;19509;43.862;26.176;2024-03-08T14:03:03;1.60;;;1.60;;
33152;SDS011;19509;43.862;26.176;2024-03-08T14:05:31;1.70;;;1.70;;
33152;SDS011;19509;43.862;26.176;2024-03-08T14:08:01;1.73;;;1.73;;
33152;SDS011;19509;43.862;26.176;2024-03-08T14:10:28;1.73;;;1.73;;
33152;SDS011;19509;43.862;26.176;2024-03-08T14:12:56;1.73;;;1.70;;
33152;SDS011;19509;43.862;26.176;2024-03-08T14:15:21;1.70;;;1.70;;
33152;SDS011;19509;43.862;26.176;2024-03-08T14:17:52;1.60;;;1.60;;
33152;SDS011;19509;43.862;26.176;2024-03-08T14:20:17;1.80;;;1.70;;
33152;SDS011;19509;43.862;26.176;2024-03-08T14:22:42;1.60;;;1.60;;
33152;SDS011;19509;43.862;26.176;2024-03-08T14:25:08;1.90;;;1.90;;
33152;SDS011;19509;43.862;26.176;2024-03-08T14:27:41;1.73;;;1.73;;
33152;SDS011;19509;43.862;26.176;2024-03-08T14:30:09;1.80;;;1.80;;
33152;SDS011;19509;43.862;26.176;2024-03-08T14:32:35;1.90;;;1.90;;
33152;SDS011;19509;43.862;26.176;2024-03-08T14:35:03;1.80;;;1.80;;
33152;SDS011;19509;43.862;26.176;2024-03-08T14:37:29;1.80;;;1.80;;
33152;SDS011;19509;43.862;26.176;2024-03-08T14:39:54;1.77;;;1.77;;
33152;SDS011;19509;43.862;26.176;2024-03-08T14:42:21;1.83;;;1.83;;
33152;SDS011;19509;43.862;26.176;2024-03-08T14:44:47;1.70;;;1.70;;